createdAt,value
2023-03-19T00:04:59.798Z,6.80
2023-03-19T00:11:10.325Z,6.60
2023-03-19T00:17:12.827Z,6.60
2023-03-19T00:23:15.203Z,6.50
2023-03-19T00:29:17.619Z,6.40
2023-03-19T00:35:19.949Z,6.30
2023-03-19T00:41:23.104Z,6.20
2023-03-19T00:47:25.728Z,6.10
2023-03-19T00:53:27.816Z,6.00
2023-03-19T00:59:30.750Z,5.90
2023-03-19T01:05:35.352Z,5.90
2023-03-19T01:11:37.790Z,5.80
2023-03-19T01:17:40.124Z,5.70
2023-03-19T01:23:42.425Z,5.70
2023-03-19T01:29:44.773Z,5.60
2023-03-19T01:35:52.834Z,5.60
2023-03-19T01:42:02.127Z,5.50
2023-03-19T01:48:39.946Z,5.50
2023-03-19T01:54:46.929Z,5.50
2023-03-19T02:01:04.884Z,5.40
2023-03-19T02:07:11.526Z,5.40
2023-03-19T02:13:14.888Z,5.50
2023-03-19T02:19:29.137Z,5.50
2023-03-19T02:25:40.127Z,5.70
2023-03-19T02:31:42.592Z,5.90
2023-03-19T02:37:45.030Z,6.00
2023-03-19T02:43:47.466Z,6.20
2023-03-19T02:49:49.850Z,6.20
2023-03-19T02:55:52.500Z,6.20
2023-03-19T03:01:55.088Z,6.10
2023-03-19T03:07:57.387Z,6.20
2023-03-19T03:13:59.648Z,6.10
2023-03-19T03:20:02.502Z,6.20
2023-03-19T03:26:05.300Z,6.20
2023-03-19T03:32:08.262Z,6.10
2023-03-19T03:38:10.493Z,6.00
2023-03-19T03:44:12.932Z,5.90
2023-03-19T03:50:17.464Z,5.80
2023-03-19T03:56:21.945Z,5.60
2023-03-19T04:02:25.594Z,5.50
2023-03-19T04:08:27.878Z,5.40
2023-03-19T04:14:30.442Z,5.30
2023-03-19T04:20:33.347Z,5.20
2023-03-19T04:26:36.600Z,5.20
2023-03-19T04:32:39.231Z,5.20
2023-03-19T04:38:42.798Z,5.20
2023-03-19T04:44:45.051Z,5.40
2023-03-19T04:50:52.197Z,5.60
2023-03-19T04:56:55.547Z,5.90
2023-03-19T05:03:01.234Z,6.30
2023-03-19T05:09:07.893Z,7.40
2023-03-19T05:15:10.736Z,11.00
2023-03-19T05:21:32.370Z,13.30
2023-03-19T05:27:35.206Z,14.90
2023-03-19T05:33:40.768Z,16.40
2023-03-19T05:39:43.785Z,18.00
2023-03-19T05:45:50.435Z,19.10
2023-03-19T05:51:57.146Z,19.80
2023-03-19T05:57:59.521Z,20.90
2023-03-19T06:04:04.898Z,21.40
2023-03-19T06:10:09.032Z,20.70
2023-03-19T06:16:12.377Z,22.40
2023-03-19T06:22:20.963Z,23.00
2023-03-19T06:28:23.955Z,22.90
2023-03-19T06:34:26.992Z,21.50
2023-03-19T06:40:29.545Z,23.00
2023-03-19T06:46:31.751Z,23.70
2023-03-19T06:52:34.026Z,20.60
2023-03-19T06:58:36.773Z,17.40
2023-03-19T07:04:39.148Z,15.50
2023-03-19T07:10:41.605Z,15.60
2023-03-19T07:16:43.948Z,17.90
2023-03-19T07:22:46.441Z,23.20
2023-03-19T07:28:48.893Z,25.00
2023-03-19T07:34:51.417Z,26.30
2023-03-19T07:41:01.863Z,26.40
2023-03-19T07:47:06.841Z,26.30
2023-03-19T07:53:10.415Z,26.90
2023-03-19T07:59:12.924Z,26.00
2023-03-19T08:05:15.206Z,26.40
2023-03-19T08:11:17.765Z,27.30
2023-03-19T08:17:20.055Z,27.70
2023-03-19T08:23:22.558Z,27.50
2023-03-19T08:29:27.485Z,28.50
2023-03-19T08:35:29.853Z,28.20
2023-03-19T08:41:32.019Z,28.00
2023-03-19T08:47:34.216Z,29.20
2023-03-19T08:53:37.569Z,28.20
2023-03-19T08:59:39.999Z,28.30
2023-03-19T09:05:42.078Z,27.30
2023-03-19T09:11:44.211Z,27.70
2023-03-19T09:17:46.511Z,27.50
2023-03-19T09:23:48.876Z,27.20
2023-03-19T09:29:51.136Z,27.40
2023-03-19T09:35:54.467Z,27.70
2023-03-19T09:42:04.845Z,27.70
2023-03-19T09:48:12.994Z,27.70
2023-03-19T09:54:33.944Z,27.20
2023-03-19T10:00:38.606Z,27.40
2023-03-19T10:06:41.477Z,26.60
2023-03-19T10:12:43.572Z,26.00
2023-03-19T10:18:50.577Z,25.60
2023-03-19T10:24:56.970Z,25.90
2023-03-19T10:31:06.124Z,26.10
2023-03-19T10:37:17.778Z,26.00
2023-03-19T10:43:26.257Z,26.70
2023-03-19T10:49:28.633Z,25.20
2023-03-19T10:55:32.354Z,26.20
2023-03-19T11:01:39.889Z,26.10
2023-03-19T11:07:41.933Z,27.30
2023-03-19T11:13:47.618Z,26.10
2023-03-19T11:19:59.896Z,26.60
2023-03-19T11:26:02.159Z,28.00
2023-03-19T11:32:21.159Z,28.00
2023-03-19T11:39:05.805Z,27.50
2023-03-19T11:45:36.021Z,27.00
2023-03-19T11:51:51.379Z,26.60
2023-03-19T11:58:19.885Z,26.50
2023-03-19T12:04:49.525Z,26.50
2023-03-19T12:10:57.651Z,27.60
2023-03-19T12:17:20.913Z,27.50
2023-03-19T12:23:45.147Z,27.30
2023-03-19T12:29:52.656Z,25.70
2023-03-19T12:35:57.068Z,26.20
2023-03-19T12:42:02.077Z,23.20
2023-03-19T12:48:36.533Z,22.30
2023-03-19T12:54:46.312Z,22.20
2023-03-19T13:01:09.346Z,20.40
2023-03-19T13:07:35.096Z,21.40
2023-03-19T13:13:57.612Z,21.60
2023-03-19T13:20:06.113Z,21.50
2023-03-19T13:26:13.008Z,23.00
2023-03-19T13:32:29.981Z,22.20
2023-03-19T13:38:40.030Z,21.70
2023-03-19T13:44:49.834Z,20.20
2023-03-19T13:51:01.443Z,20.30
2023-03-19T13:57:15.388Z,21.20
2023-03-19T14:03:27.079Z,19.40
2023-03-19T14:10:05.191Z,18.60
2023-03-19T14:16:32.296Z,17.90
2023-03-19T14:22:40.574Z,17.60
2023-03-19T14:28:51.838Z,17.10
2023-03-19T14:34:55.726Z,17.00
2023-03-19T14:41:01.353Z,16.70
2023-03-19T14:47:19.219Z,16.40
2023-03-19T14:53:37.655Z,16.00
2023-03-19T14:59:40.852Z,16.00
2023-03-19T15:05:43.460Z,15.80
2023-03-19T15:11:56.147Z,15.60
2023-03-19T15:18:10.172Z,15.40
2023-03-19T15:24:17.551Z,15.20
2023-03-19T15:30:24.856Z,15.00
2023-03-19T15:36:33.737Z,14.90
2023-03-19T15:42:39.838Z,14.70
2023-03-19T15:48:42.546Z,14.50
2023-03-19T15:54:45.289Z,14.40
2023-03-19T16:00:48.010Z,14.30
2023-03-19T16:06:51.044Z,14.10
2023-03-19T16:12:53.957Z,14.00
2023-03-19T16:18:57.036Z,13.90
2023-03-19T16:25:00.247Z,13.80
2023-03-19T16:31:03.112Z,13.70
2023-03-19T16:37:34.345Z,13.50
2023-03-19T16:43:37.693Z,13.30
2023-03-19T16:49:40.030Z,13.20
2023-03-19T16:55:42.965Z,13.10
2023-03-19T17:01:45.099Z,13.00
2023-03-19T17:07:47.498Z,12.80
2023-03-19T17:13:49.844Z,12.80
2023-03-19T17:19:52.220Z,12.70
2023-03-19T17:25:54.998Z,12.60
2023-03-19T17:31:58.324Z,12.50
2023-03-19T17:38:01.198Z,12.50
2023-03-19T17:44:06.349Z,12.30
2023-03-19T17:50:17.287Z,12.20
2023-03-19T17:56:22.671Z,12.10
2023-03-19T18:02:31.733Z,12.00
2023-03-19T18:08:34.595Z,11.90
2023-03-19T18:14:37.000Z,12.00
2023-03-19T18:20:40.645Z,11.80
2023-03-19T18:26:43.113Z,11.70
2023-03-19T18:32:48.782Z,11.50
2023-03-19T18:38:51.206Z,11.40
2023-03-19T18:44:53.732Z,11.30
2023-03-19T18:50:56.160Z,11.20
2023-03-19T18:57:02.658Z,11.10
2023-03-19T19:03:05.806Z,11.20
2023-03-19T19:09:08.565Z,11.10
2023-03-19T19:15:30.832Z,11.00
2023-03-19T19:21:33.285Z,10.80
2023-03-19T19:27:35.927Z,10.60
2023-03-19T19:33:38.286Z,10.50
2023-03-19T19:39:41.186Z,10.40
2023-03-19T19:45:44.919Z,10.40
2023-03-19T19:51:47.289Z,10.30
2023-03-19T19:57:50.346Z,10.20
2023-03-19T20:03:53.217Z,10.20
2023-03-19T20:09:55.582Z,10.00
2023-03-19T20:15:59.253Z,9.80
2023-03-19T20:22:02.119Z,9.70
2023-03-19T20:28:05.045Z,9.60
2023-03-19T20:34:22.547Z,9.50
2023-03-19T20:40:41.079Z,9.50
2023-03-19T20:46:43.486Z,9.50
2023-03-19T20:52:46.727Z,9.40
2023-03-19T20:58:49.411Z,9.20
2023-03-19T21:04:52.041Z,9.20
2023-03-19T21:10:54.709Z,9.00
2023-03-19T21:16:57.315Z,8.90
2023-03-19T21:23:21.675Z,8.80
2023-03-19T21:29:33.619Z,8.90
2023-03-19T21:35:36.423Z,8.80
2023-03-19T21:41:38.855Z,8.70
2023-03-19T21:47:41.339Z,8.60
2023-03-19T21:53:46.000Z,8.50
2023-03-19T21:59:48.539Z,8.40
2023-03-19T22:05:51.647Z,8.30
2023-03-19T22:11:54.149Z,8.20
2023-03-19T22:17:56.321Z,8.10
2023-03-19T22:23:58.940Z,8.20
2023-03-19T22:30:02.200Z,8.10
2023-03-19T22:36:04.820Z,8.00
2023-03-19T22:42:09.122Z,8.10
2023-03-19T22:48:16.073Z,8.20
2023-03-19T22:54:18.115Z,8.10
2023-03-19T23:00:24.295Z,8.10
2023-03-19T23:06:30.826Z,8.00
2023-03-19T23:12:33.239Z,7.90
2023-03-19T23:18:37.377Z,7.70
2023-03-19T23:24:39.668Z,7.60
2023-03-19T23:30:41.876Z,7.40
2023-03-19T23:36:44.670Z,7.30
2023-03-19T23:42:53.092Z,7.20
2023-03-19T23:48:56.854Z,7.10
2023-03-19T23:54:59.159Z,7.00
